sensor_id;sensor_type;location;lat;lon;timestamp;temperature;humidity
3208;DHT22;1616;52.394;9.756;2023-03-14T00:00:59;12.80;1.00
3208;DHT22;1616;52.394;9.756;2023-03-14T00:03:25;12.80;1.00
3208;DHT22;1616;52.394;9.756;2023-03-14T00:05:51;12.80;1.00
3208;DHT22;1616;52.394;9.756;2023-03-14T00:08:16;12.90;1.00
3208;DHT22;1616;52.394;9.756;2023-03-14T00:10:43;12.90;1.00
3208;DHT22;1616;52.394;9.756;2023-03-14T00:13:08;12.90;1.00
3208;DHT22;1616;52.394;9.756;2023-03-14T00:15:34;13.00;1.00
3208;DHT22;1616;52.394;9.756;2023-03-14T00:18:00;13.00;1.00
3208;DHT22;1616;52.394;9.756;2023-03-14T00:20:26;13.00;1.00
3208;DHT22;1616;52.394;9.756;2023-03-14T00:22:52;13.00;1.00
3208;DHT22;1616;52.394;9.756;2023-03-14T00:25:18;13.00;1.00
3208;DHT22;1616;52.394;9.756;2023-03-14T00:27:44;13.00;1.00
3208;DHT22;1616;52.394;9.756;2023-03-14T00:30:10;13.00;1.00
3208;DHT22;1616;52.394;9.756;2023-03-14T00:32:36;13.00;1.00
3208;DHT22;1616;52.394;9.756;2023-03-14T00:35:03;13.00;1.00
3208;DHT22;1616;52.394;9.756;2023-03-14T00:37:29;13.00;1.00
3208;DHT22;1616;52.394;9.756;2023-03-14T00:39:55;13.10;1.00
3208;DHT22;1616;52.394;9.756;2023-03-14T00:42:20;13.10;1.00
3208;DHT22;1616;52.394;9.756;2023-03-14T00:44:46;13.10;1.00
3208;DHT22;1616;52.394;9.756;2023-03-14T00:47:12;13.10;1.00
3208;DHT22;1616;52.394;9.756;2023-03-14T00:49:37;13.10;1.00
3208;DHT22;1616;52.394;9.756;2023-03-14T00:52:03;13.10;1.00
3208;DHT22;1616;52.394;9.756;2023-03-14T00:54:29;13.20;1.00
3208;DHT22;1616;52.394;9.756;2023-03-14T00:56:55;13.20;1.00
3208;DHT22;1616;52.394;9.756;2023-03-14T00:59:21;13.10;1.00
3208;DHT22;1616;52.394;9.756;2023-03-14T01:01:46;13.20;1.00
3208;DHT22;1616;52.394;9.756;2023-03-14T01:04:12;13.20;1.00
3208;DHT22;1616;52.394;9.756;2023-03-14T01:06:39;13.20;1.00
3208;DHT22;1616;52.394;9.756;2023-03-14T01:09:04;13.20;1.00
3208;DHT22;1616;52.394;9.756;2023-03-14T01:11:33;13.20;1.00
3208;DHT22;1616;52.394;9.756;2023-03-14T01:13:59;13.10;1.00
3208;DHT22;1616;52.394;9.756;2023-03-14T01:16:27;13.20;1.00
3208;DHT22;1616;52.394;9.756;2023-03-14T01:18:54;13.20;1.00
3208;DHT22;1616;52.394;9.756;2023-03-14T01:21:22;13.20;1.00
3208;DHT22;1616;52.394;9.756;2023-03-14T01:23:49;13.20;1.00
3208;DHT22;1616;52.394;9.756;2023-03-14T01:26:17;13.10;1.00
3208;DHT22;1616;52.394;9.756;2023-03-14T01:28:47;13.10;1.00
3208;DHT22;1616;52.394;9.756;2023-03-14T01:31:13;13.00;1.00
3208;DHT22;1616;52.394;9.756;2023-03-14T01:33:40;13.10;1.00
3208;DHT22;1616;52.394;9.756;2023-03-14T01:36:06;13.00;1.00
3208;DHT22;1616;52.394;9.756;2023-03-14T01:38:33;13.00;1.00
3208;DHT22;1616;52.394;9.756;2023-03-14T01:41:00;13.00;1.00
3208;DHT22;1616;52.394;9.756;2023-03-14T01:43:26;12.90;1.00
3208;DHT22;1616;52.394;9.756;2023-03-14T01:46:24;12.90;1.00
3208;DHT22;1616;52.394;9.756;2023-03-14T01:56:57;12.90;1.00
3208;DHT22;1616;52.394;9.756;2023-03-14T01:59:25;12.80;1.00
3208;DHT22;1616;52.394;9.756;2023-03-14T02:01:52;12.90;1.00
3208;DHT22;1616;52.394;9.756;2023-03-14T02:04:20;12.90;1.00
3208;DHT22;1616;52.394;9.756;2023-03-14T02:07:16;12.90;1.00
3208;DHT22;1616;52.394;9.756;2023-03-14T02:09:43;12.90;1.00
3208;DHT22;1616;52.394;9.756;2023-03-14T02:12:11;12.90;1.00
3208;DHT22;1616;52.394;9.756;2023-03-14T02:14:39;12.90;1.00
3208;DHT22;1616;52.394;9.756;2023-03-14T02:17:06;12.90;1.00
3208;DHT22;1616;52.394;9.756;2023-03-14T02:22:13;12.80;1.00
3208;DHT22;1616;52.394;9.756;2023-03-14T02:27:31;13.00;1.00
3208;DHT22;1616;52.394;9.756;2023-03-14T02:32:31;13.00;1.00
3208;DHT22;1616;52.394;9.756;2023-03-14T02:34:59;13.00;1.00
3208;DHT22;1616;52.394;9.756;2023-03-14T02:37:47;13.00;1.00
3208;DHT22;1616;52.394;9.756;2023-03-14T02:40:14;13.00;1.00
3208;DHT22;1616;52.394;9.756;2023-03-14T02:42:40;13.00;1.00
3208;DHT22;1616;52.394;9.756;2023-03-14T02:47:37;12.90;1.00
3208;DHT22;1616;52.394;9.756;2023-03-14T02:50:10;12.90;1.00
3208;DHT22;1616;52.394;9.756;2023-03-14T02:52:37;13.00;1.00
3208;DHT22;1616;52.394;9.756;2023-03-14T02:55:04;12.90;1.00
3208;DHT22;1616;52.394;9.756;2023-03-14T02:57:30;12.90;1.00
3208;DHT22;1616;52.394;9.756;2023-03-14T02:59:59;12.90;1.00
3208;DHT22;1616;52.394;9.756;2023-03-14T03:02:26;12.90;1.00
3208;DHT22;1616;52.394;9.756;2023-03-14T03:04:51;12.90;1.00
3208;DHT22;1616;52.394;9.756;2023-03-14T03:07:17;12.90;1.00
3208;DHT22;1616;52.394;9.756;2023-03-14T03:09:43;12.90;1.00
3208;DHT22;1616;52.394;9.756;2023-03-14T03:12:10;12.90;1.00
3208;DHT22;1616;52.394;9.756;2023-03-14T03:14:36;12.90;1.00
3208;DHT22;1616;52.394;9.756;2023-03-14T03:17:05;12.90;1.00
3208;DHT22;1616;52.394;9.756;2023-03-14T03:19:32;12.90;1.00
3208;DHT22;1616;52.394;9.756;2023-03-14T03:21:58;12.90;1.00
3208;DHT22;1616;52.394;9.756;2023-03-14T03:24:25;12.90;1.00
3208;DHT22;1616;52.394;9.756;2023-03-14T03:26:51;12.90;1.00
3208;DHT22;1616;52.394;9.756;2023-03-14T03:29:16;12.90;1.00
3208;DHT22;1616;52.394;9.756;2023-03-14T03:31:42;12.90;1.00
3208;DHT22;1616;52.394;9.756;2023-03-14T03:34:08;13.00;1.00
3208;DHT22;1616;52.394;9.756;2023-03-14T03:36:34;12.90;1.00
3208;DHT22;1616;52.394;9.756;2023-03-14T03:38:59;13.00;1.00
3208;DHT22;1616;52.394;9.756;2023-03-14T03:41:25;13.00;1.00
3208;DHT22;1616;52.394;9.756;2023-03-14T03:43:51;13.00;1.00
3208;DHT22;1616;52.394;9.756;2023-03-14T03:46:17;12.90;1.00
3208;DHT22;1616;52.394;9.756;2023-03-14T03:48:42;12.90;1.00
3208;DHT22;1616;52.394;9.756;2023-03-14T03:51:13;12.80;1.00
3208;DHT22;1616;52.394;9.756;2023-03-14T03:53:39;12.60;1.00
3208;DHT22;1616;52.394;9.756;2023-03-14T03:56:05;12.30;1.00
3208;DHT22;1616;52.394;9.756;2023-03-14T03:58:31;12.00;1.00
3208;DHT22;1616;52.394;9.756;2023-03-14T04:00:56;11.80;1.00
3208;DHT22;1616;52.394;9.756;2023-03-14T04:03:22;11.50;1.00
3208;DHT22;1616;52.394;9.756;2023-03-14T04:06:15;11.30;1.00
3208;DHT22;1616;52.394;9.756;2023-03-14T04:08:41;11.20;1.00
3208;DHT22;1616;52.394;9.756;2023-03-14T04:11:07;11.00;1.00
3208;DHT22;1616;52.394;9.756;2023-03-14T04:13:33;10.90;1.00
3208;DHT22;1616;52.394;9.756;2023-03-14T04:15:58;10.80;1.00
3208;DHT22;1616;52.394;9.756;2023-03-14T04:18:24;10.70;1.00
3208;DHT22;1616;52.394;9.756;2023-03-14T04:20:57;10.70;1.00
3208;DHT22;1616;52.394;9.756;2023-03-14T04:23:24;10.60;1.00
3208;DHT22;1616;52.394;9.756;2023-03-14T04:25:50;10.50;1.00
3208;DHT22;1616;52.394;9.756;2023-03-14T04:28:16;10.40;1.00
3208;DHT22;1616;52.394;9.756;2023-03-14T04:30:42;10.30;1.00
3208;DHT22;1616;52.394;9.756;2023-03-14T04:33:07;10.30;1.00
3208;DHT22;1616;52.394;9.756;2023-03-14T04:35:33;10.20;1.00
3208;DHT22;1616;52.394;9.756;2023-03-14T04:37:59;10.10;1.00
3208;DHT22;1616;52.394;9.756;2023-03-14T04:40:25;10.10;1.00
3208;DHT22;1616;52.394;9.756;2023-03-14T04:42:51;10.10;1.00
3208;DHT22;1616;52.394;9.756;2023-03-14T04:45:16;10.00;1.00
3208;DHT22;1616;52.394;9.756;2023-03-14T04:47:42;10.00;1.00
3208;DHT22;1616;52.394;9.756;2023-03-14T04:50:09;9.90;1.00
3208;DHT22;1616;52.394;9.756;2023-03-14T04:52:35;9.90;1.00
3208;DHT22;1616;52.394;9.756;2023-03-14T04:55:01;9.90;1.00
3208;DHT22;1616;52.394;9.756;2023-03-14T04:57:27;9.80;1.00
3208;DHT22;1616;52.394;9.756;2023-03-14T04:59:52;9.90;1.00
3208;DHT22;1616;52.394;9.756;2023-03-14T05:02:18;9.90;1.00
3208;DHT22;1616;52.394;9.756;2023-03-14T05:04:44;9.90;1.00
3208;DHT22;1616;52.394;9.756;2023-03-14T05:07:09;9.90;1.00
3208;DHT22;1616;52.394;9.756;2023-03-14T05:09:35;9.90;1.00
3208;DHT22;1616;52.394;9.756;2023-03-14T05:12:01;9.80;1.00
3208;DHT22;1616;52.394;9.756;2023-03-14T05:14:26;9.90;1.00
3208;DHT22;1616;52.394;9.756;2023-03-14T05:16:52;10.00;1.00
3208;DHT22;1616;52.394;9.756;2023-03-14T05:19:19;9.90;1.00
3208;DHT22;1616;52.394;9.756;2023-03-14T05:21:44;9.90;1.00
3208;DHT22;1616;52.394;9.756;2023-03-14T05:24:10;9.90;1.00
3208;DHT22;1616;52.394;9.756;2023-03-14T05:26:35;9.90;1.00
3208;DHT22;1616;52.394;9.756;2023-03-14T05:29:01;9.90;1.00
3208;DHT22;1616;52.394;9.756;2023-03-14T05:31:26;9.80;1.00
3208;DHT22;1616;52.394;9.756;2023-03-14T05:33:52;9.90;1.00
3208;DHT22;1616;52.394;9.756;2023-03-14T05:36:17;9.70;1.00
3208;DHT22;1616;52.394;9.756;2023-03-14T05:38:43;9.90;1.00
3208;DHT22;1616;52.394;9.756;2023-03-14T05:41:08;9.90;1.00
3208;DHT22;1616;52.394;9.756;2023-03-14T05:43:34;9.90;1.00
3208;DHT22;1616;52.394;9.756;2023-03-14T05:45:59;9.90;1.00
3208;DHT22;1616;52.394;9.756;2023-03-14T05:48:25;9.90;1.00
3208;DHT22;1616;52.394;9.756;2023-03-14T05:50:57;9.90;1.00
3208;DHT22;1616;52.394;9.756;2023-03-14T05:53:26;9.90;1.00
3208;DHT22;1616;52.394;9.756;2023-03-14T05:55:53;10.00;1.00
3208;DHT22;1616;52.394;9.756;2023-03-14T05:58:19;10.00;1.00
3208;DHT22;1616;52.394;9.756;2023-03-14T06:00:45;10.00;1.00
3208;DHT22;1616;52.394;9.756;2023-03-14T06:03:10;10.10;1.00
3208;DHT22;1616;52.394;9.756;2023-03-14T06:05:36;10.10;1.00
3208;DHT22;1616;52.394;9.756;2023-03-14T06:08:02;10.10;1.00
3208;DHT22;1616;52.394;9.756;2023-03-14T06:10:27;10.20;1.00
3208;DHT22;1616;52.394;9.756;2023-03-14T06:12:53;10.10;1.00
3208;DHT22;1616;52.394;9.756;2023-03-14T06:15:19;10.30;1.00
3208;DHT22;1616;52.394;9.756;2023-03-14T06:17:45;10.30;1.00
3208;DHT22;1616;52.394;9.756;2023-03-14T06:20:11;10.30;1.00
3208;DHT22;1616;52.394;9.756;2023-03-14T06:22:37;10.40;1.00
3208;DHT22;1616;52.394;9.756;2023-03-14T06:25:06;10.40;1.00
3208;DHT22;1616;52.394;9.756;2023-03-14T06:27:32;10.60;1.00
3208;DHT22;1616;52.394;9.756;2023-03-14T06:29:57;10.70;1.00
3208;DHT22;1616;52.394;9.756;2023-03-14T06:32:23;10.90;1.00
3208;DHT22;1616;52.394;9.756;2023-03-14T06:34:50;10.90;1.00
3208;DHT22;1616;52.394;9.756;2023-03-14T06:37:17;11.00;1.00
3208;DHT22;1616;52.394;9.756;2023-03-14T06:39:42;11.00;1.00
3208;DHT22;1616;52.394;9.756;2023-03-14T06:42:09;11.10;1.00
3208;DHT22;1616;52.394;9.756;2023-03-14T06:44:35;11.10;1.00
3208;DHT22;1616;52.394;9.756;2023-03-14T06:47:01;11.20;1.00
3208;DHT22;1616;52.394;9.756;2023-03-14T06:49:27;11.20;1.00
3208;DHT22;1616;52.394;9.756;2023-03-14T06:51:55;11.30;1.00
3208;DHT22;1616;52.394;9.756;2023-03-14T06:54:20;11.40;1.00
3208;DHT22;1616;52.394;9.756;2023-03-14T06:56:46;11.40;1.00
3208;DHT22;1616;52.394;9.756;2023-03-14T06:59:14;11.40;1.00
3208;DHT22;1616;52.394;9.756;2023-03-14T07:01:40;11.50;1.00
3208;DHT22;1616;52.394;9.756;2023-03-14T07:04:12;11.60;1.00
3208;DHT22;1616;52.394;9.756;2023-03-14T07:06:37;11.60;1.00
3208;DHT22;1616;52.394;9.756;2023-03-14T07:09:04;11.70;1.00
3208;DHT22;1616;52.394;9.756;2023-03-14T07:11:30;11.90;1.00
3208;DHT22;1616;52.394;9.756;2023-03-14T07:13:56;12.10;1.00
3208;DHT22;1616;52.394;9.756;2023-03-14T07:16:22;12.10;1.00
3208;DHT22;1616;52.394;9.756;2023-03-14T07:18:47;12.10;1.00
3208;DHT22;1616;52.394;9.756;2023-03-14T07:21:14;12.00;1.00
3208;DHT22;1616;52.394;9.756;2023-03-14T07:23:40;11.90;1.00
3208;DHT22;1616;52.394;9.756;2023-03-14T07:26:06;11.80;1.00
3208;DHT22;1616;52.394;9.756;2023-03-14T07:28:32;11.80;1.00
3208;DHT22;1616;52.394;9.756;2023-03-14T07:30:57;11.90;1.00
3208;DHT22;1616;52.394;9.756;2023-03-14T07:33:24;11.80;1.00
3208;DHT22;1616;52.394;9.756;2023-03-14T07:35:50;11.80;1.00
3208;DHT22;1616;52.394;9.756;2023-03-14T07:38:16;11.80;1.00
3208;DHT22;1616;52.394;9.756;2023-03-14T07:40:42;11.90;1.00
3208;DHT22;1616;52.394;9.756;2023-03-14T07:43:07;11.90;1.00
3208;DHT22;1616;52.394;9.756;2023-03-14T07:45:33;11.90;1.00
3208;DHT22;1616;52.394;9.756;2023-03-14T07:47:58;11.90;1.00
3208;DHT22;1616;52.394;9.756;2023-03-14T07:50:25;11.90;1.00
3208;DHT22;1616;52.394;9.756;2023-03-14T07:52:51;11.90;1.00
3208;DHT22;1616;52.394;9.756;2023-03-14T07:55:17;11.80;1.00
3208;DHT22;1616;52.394;9.756;2023-03-14T07:57:43;11.70;1.00
3208;DHT22;1616;52.394;9.756;2023-03-14T08:00:09;11.70;1.00
3208;DHT22;1616;52.394;9.756;2023-03-14T08:02:36;11.60;1.00
3208;DHT22;1616;52.394;9.756;2023-03-14T08:05:03;11.50;1.00
3208;DHT22;1616;52.394;9.756;2023-03-14T08:07:29;11.50;1.00
3208;DHT22;1616;52.394;9.756;2023-03-14T08:09:54;11.40;1.00
3208;DHT22;1616;52.394;9.756;2023-03-14T08:12:20;11.40;1.00
3208;DHT22;1616;52.394;9.756;2023-03-14T08:14:46;11.40;1.00
3208;DHT22;1616;52.394;9.756;2023-03-14T08:17:12;11.50;1.00
3208;DHT22;1616;52.394;9.756;2023-03-14T08:19:37;11.40;1.00
3208;DHT22;1616;52.394;9.756;2023-03-14T08:22:03;11.60;1.00
3208;DHT22;1616;52.394;9.756;2023-03-14T08:24:29;11.60;1.00
3208;DHT22;1616;52.394;9.756;2023-03-14T08:26:55;11.80;1.00
3208;DHT22;1616;52.394;9.756;2023-03-14T08:29:21;11.80;1.00
3208;DHT22;1616;52.394;9.756;2023-03-14T08:31:46;11.90;1.00
3208;DHT22;1616;52.394;9.756;2023-03-14T08:34:14;12.10;1.00
3208;DHT22;1616;52.394;9.756;2023-03-14T08:36:40;12.20;1.00
3208;DHT22;1616;52.394;9.756;2023-03-14T08:39:06;12.60;1.00
3208;DHT22;1616;52.394;9.756;2023-03-14T08:41:33;13.40;1.00
3208;DHT22;1616;52.394;9.756;2023-03-14T08:44:09;13.90;1.00
3208;DHT22;1616;52.394;9.756;2023-03-14T08:46:35;14.30;1.00
3208;DHT22;1616;52.394;9.756;2023-03-14T08:49:00;14.40;1.00
3208;DHT22;1616;52.394;9.756;2023-03-14T08:51:26;14.20;1.00
3208;DHT22;1616;52.394;9.756;2023-03-14T08:53:52;14.10;1.00
3208;DHT22;1616;52.394;9.756;2023-03-14T08:56:17;14.00;1.00
3208;DHT22;1616;52.394;9.756;2023-03-14T08:58:43;13.90;1.00
3208;DHT22;1616;52.394;9.756;2023-03-14T09:01:10;13.70;1.00
3208;DHT22;1616;52.394;9.756;2023-03-14T09:03:36;13.60;1.00
3208;DHT22;1616;52.394;9.756;2023-03-14T09:06:07;13.50;1.00
3208;DHT22;1616;52.394;9.756;2023-03-14T09:08:33;13.40;1.00
3208;DHT22;1616;52.394;9.756;2023-03-14T09:10:59;13.20;1.00
3208;DHT22;1616;52.394;9.756;2023-03-14T09:13:25;13.10;1.00
3208;DHT22;1616;52.394;9.756;2023-03-14T09:15:55;12.80;1.00
3208;DHT22;1616;52.394;9.756;2023-03-14T09:18:21;12.60;1.00
3208;DHT22;1616;52.394;9.756;2023-03-14T09:20:46;12.60;1.00
3208;DHT22;1616;52.394;9.756;2023-03-14T09:23:12;12.50;1.00
3208;DHT22;1616;52.394;9.756;2023-03-14T09:25:38;12.40;1.00
3208;DHT22;1616;52.394;9.756;2023-03-14T09:28:04;12.40;1.00
3208;DHT22;1616;52.394;9.756;2023-03-14T09:30:30;12.40;1.00
3208;DHT22;1616;52.394;9.756;2023-03-14T09:32:55;12.30;1.00
3208;DHT22;1616;52.394;9.756;2023-03-14T09:35:22;12.30;1.00
3208;DHT22;1616;52.394;9.756;2023-03-14T09:37:48;12.40;1.00
3208;DHT22;1616;52.394;9.756;2023-03-14T09:40:16;12.60;1.00
3208;DHT22;1616;52.394;9.756;2023-03-14T09:42:42;12.80;1.00
3208;DHT22;1616;52.394;9.756;2023-03-14T09:45:36;13.00;1.00
3208;DHT22;1616;52.394;9.756;2023-03-14T09:48:03;13.10;1.00
3208;DHT22;1616;52.394;9.756;2023-03-14T09:50:41;13.10;1.00
3208;DHT22;1616;52.394;9.756;2023-03-14T09:53:17;13.20;1.00
3208;DHT22;1616;52.394;9.756;2023-03-14T09:55:45;13.60;1.00
3208;DHT22;1616;52.394;9.756;2023-03-14T09:58:13;14.00;1.00
3208;DHT22;1616;52.394;9.756;2023-03-14T10:00:40;14.70;1.00
3208;DHT22;1616;52.394;9.756;2023-03-14T10:05:37;15.60;1.00
3208;DHT22;1616;52.394;9.756;2023-03-14T10:08:03;15.80;1.00
3208;DHT22;1616;52.394;9.756;2023-03-14T10:10:30;15.80;1.00
3208;DHT22;1616;52.394;9.756;2023-03-14T10:12:59;15.70;1.00
3208;DHT22;1616;52.394;9.756;2023-03-14T10:15:30;15.80;1.00
3208;DHT22;1616;52.394;9.756;2023-03-14T10:17:59;15.80;1.00
3208;DHT22;1616;52.394;9.756;2023-03-14T10:23:00;15.80;1.00
3208;DHT22;1616;52.394;9.756;2023-03-14T10:25:29;15.90;1.00
3208;DHT22;1616;52.394;9.756;2023-03-14T10:27:56;15.70;1.00
3208;DHT22;1616;52.394;9.756;2023-03-14T10:30:48;15.70;1.00
3208;DHT22;1616;52.394;9.756;2023-03-14T10:33:22;15.60;1.00
3208;DHT22;1616;52.394;9.756;2023-03-14T10:35:58;15.40;1.00
3208;DHT22;1616;52.394;9.756;2023-03-14T10:38:30;15.30;1.00
3208;DHT22;1616;52.394;9.756;2023-03-14T10:40:56;15.00;1.00
3208;DHT22;1616;52.394;9.756;2023-03-14T10:43:32;14.70;1.00
3208;DHT22;1616;52.394;9.756;2023-03-14T10:46:13;14.70;1.00
3208;DHT22;1616;52.394;9.756;2023-03-14T10:48:40;14.60;1.00
3208;DHT22;1616;52.394;9.756;2023-03-14T10:53:47;14.50;1.00
3208;DHT22;1616;52.394;9.756;2023-03-14T10:56:15;14.30;1.00
3208;DHT22;1616;52.394;9.756;2023-03-14T10:58:43;14.40;1.00
3208;DHT22;1616;52.394;9.756;2023-03-14T11:01:39;14.40;1.00
3208;DHT22;1616;52.394;9.756;2023-03-14T11:04:21;14.40;1.00
3208;DHT22;1616;52.394;9.756;2023-03-14T11:06:58;14.40;1.00
3208;DHT22;1616;52.394;9.756;2023-03-14T11:09:51;14.30;1.00
3208;DHT22;1616;52.394;9.756;2023-03-14T11:12:32;14.30;1.00
3208;DHT22;1616;52.394;9.756;2023-03-14T11:15:11;14.20;1.00
3208;DHT22;1616;52.394;9.756;2023-03-14T11:18:22;14.20;1.00
3208;DHT22;1616;52.394;9.756;2023-03-14T11:21:02;14.00;1.00
3208;DHT22;1616;52.394;9.756;2023-03-14T11:23:58;13.70;1.00
3208;DHT22;1616;52.394;9.756;2023-03-14T11:26:51;13.30;1.00
3208;DHT22;1616;52.394;9.756;2023-03-14T11:29:53;12.80;1.00
3208;DHT22;1616;52.394;9.756;2023-03-14T11:32:46;12.20;1.00
3208;DHT22;1616;52.394;9.756;2023-03-14T11:38:15;11.00;1.00
3208;DHT22;1616;52.394;9.756;2023-03-14T11:40:41;10.50;1.00
3208;DHT22;1616;52.394;9.756;2023-03-14T11:43:38;10.10;1.00
3208;DHT22;1616;52.394;9.756;2023-03-14T11:46:54;9.70;1.00
3208;DHT22;1616;52.394;9.756;2023-03-14T11:49:03;9.50;1.00
3208;DHT22;1616;52.394;9.756;2023-03-14T11:51:36;9.30;1.00
3208;DHT22;1616;52.394;9.756;2023-03-14T11:54:32;9.20;1.00
3208;DHT22;1616;52.394;9.756;2023-03-14T11:57:10;9.00;1.00
3208;DHT22;1616;52.394;9.756;2023-03-14T12:02:40;8.60;1.00
3208;DHT22;1616;52.394;9.756;2023-03-14T12:10:51;8.30;1.00
3208;DHT22;1616;52.394;9.756;2023-03-14T12:13:19;7.90;1.00
3208;DHT22;1616;52.394;9.756;2023-03-14T12:15:56;7.70;1.00
3208;DHT22;1616;52.394;9.756;2023-03-14T12:21:17;7.40;1.00
3208;DHT22;1616;52.394;9.756;2023-03-14T12:23:52;7.30;1.00
3208;DHT22;1616;52.394;9.756;2023-03-14T12:26:27;7.20;1.00
3208;DHT22;1616;52.394;9.756;2023-03-14T12:44:51;6.40;1.00
3208;DHT22;1616;52.394;9.756;2023-03-14T12:49:50;6.40;1.00
3208;DHT22;1616;52.394;9.756;2023-03-14T12:52:22;6.40;1.00
3208;DHT22;1616;52.394;9.756;2023-03-14T12:55:07;6.40;1.00
3208;DHT22;1616;52.394;9.756;2023-03-14T13:00:33;6.30;1.00
3208;DHT22;1616;52.394;9.756;2023-03-14T13:03:20;6.30;1.00
3208;DHT22;1616;52.394;9.756;2023-03-14T13:05:58;6.30;1.00
3208;DHT22;1616;52.394;9.756;2023-03-14T13:08:45;6.20;1.00
3208;DHT22;1616;52.394;9.756;2023-03-14T13:11:18;6.30;1.00
3208;DHT22;1616;52.394;9.756;2023-03-14T13:13:57;6.30;1.00
3208;DHT22;1616;52.394;9.756;2023-03-14T13:16:23;6.50;1.00
3208;DHT22;1616;52.394;9.756;2023-03-14T13:18:52;6.60;1.00
3208;DHT22;1616;52.394;9.756;2023-03-14T13:21:27;7.00;1.00
3208;DHT22;1616;52.394;9.756;2023-03-14T13:24:06;7.20;1.00
3208;DHT22;1616;52.394;9.756;2023-03-14T13:26:40;7.50;1.00
3208;DHT22;1616;52.394;9.756;2023-03-14T13:29:22;7.60;1.00
3208;DHT22;1616;52.394;9.756;2023-03-14T13:31:53;7.70;1.00
3208;DHT22;1616;52.394;9.756;2023-03-14T13:34:20;7.70;1.00
3208;DHT22;1616;52.394;9.756;2023-03-14T13:36:46;7.80;1.00
3208;DHT22;1616;52.394;9.756;2023-03-14T13:39:19;7.80;1.00
3208;DHT22;1616;52.394;9.756;2023-03-14T13:41:46;7.90;1.00
3208;DHT22;1616;52.394;9.756;2023-03-14T13:44:17;7.90;1.00
3208;DHT22;1616;52.394;9.756;2023-03-14T13:46:45;8.00;1.00
3208;DHT22;1616;52.394;9.756;2023-03-14T13:49:24;8.00;1.00
3208;DHT22;1616;52.394;9.756;2023-03-14T13:51:50;8.00;1.00
3208;DHT22;1616;52.394;9.756;2023-03-14T13:54:21;8.10;1.00
3208;DHT22;1616;52.394;9.756;2023-03-14T13:56:47;8.20;1.00
3208;DHT22;1616;52.394;9.756;2023-03-14T14:01:47;8.70;1.00
3208;DHT22;1616;52.394;9.756;2023-03-14T14:04:19;8.80;1.00
3208;DHT22;1616;52.394;9.756;2023-03-14T14:06:50;8.80;1.00
3208;DHT22;1616;52.394;9.756;2023-03-14T14:09:20;8.70;1.00
3208;DHT22;1616;52.394;9.756;2023-03-14T14:11:59;8.70;1.00
3208;DHT22;1616;52.394;9.756;2023-03-14T14:14:40;8.60;1.00
3208;DHT22;1616;52.394;9.756;2023-03-14T14:17:10;8.50;1.00
3208;DHT22;1616;52.394;9.756;2023-03-14T14:19:38;8.60;1.00
3208;DHT22;1616;52.394;9.756;2023-03-14T14:22:07;8.60;1.00
3208;DHT22;1616;52.394;9.756;2023-03-14T14:24:34;8.70;1.00
3208;DHT22;1616;52.394;9.756;2023-03-14T14:27:27;8.50;1.00
3208;DHT22;1616;52.394;9.756;2023-03-14T14:30:06;8.60;1.00
3208;DHT22;1616;52.394;9.756;2023-03-14T14:32:50;8.50;1.00
3208;DHT22;1616;52.394;9.756;2023-03-14T14:35:24;8.50;1.00
3208;DHT22;1616;52.394;9.756;2023-03-14T14:37:50;8.40;1.00
3208;DHT22;1616;52.394;9.756;2023-03-14T14:40:22;8.40;1.00
3208;DHT22;1616;52.394;9.756;2023-03-14T14:42:48;8.30;1.00
3208;DHT22;1616;52.394;9.756;2023-03-14T14:45:20;8.30;1.00
3208;DHT22;1616;52.394;9.756;2023-03-14T14:47:50;8.30;1.00
3208;DHT22;1616;52.394;9.756;2023-03-14T14:52:57;8.20;1.00
3208;DHT22;1616;52.394;9.756;2023-03-14T14:55:30;8.10;1.00
3208;DHT22;1616;52.394;9.756;2023-03-14T14:57:56;8.00;1.00
3208;DHT22;1616;52.394;9.756;2023-03-14T15:00:26;8.10;1.00
3208;DHT22;1616;52.394;9.756;2023-03-14T15:02:59;8.00;1.00
3208;DHT22;1616;52.394;9.756;2023-03-14T15:05:27;8.00;1.00
3208;DHT22;1616;52.394;9.756;2023-03-14T15:07:55;7.90;1.00
3208;DHT22;1616;52.394;9.756;2023-03-14T15:10:23;7.80;1.00
3208;DHT22;1616;52.394;9.756;2023-03-14T15:12:50;7.80;1.00
3208;DHT22;1616;52.394;9.756;2023-03-14T15:15:16;7.70;1.00
3208;DHT22;1616;52.394;9.756;2023-03-14T15:17:43;7.70;1.00
3208;DHT22;1616;52.394;9.756;2023-03-14T15:20:14;7.60;1.00
3208;DHT22;1616;52.394;9.756;2023-03-14T15:22:40;7.60;1.00
3208;DHT22;1616;52.394;9.756;2023-03-14T15:25:07;7.60;1.00
3208;DHT22;1616;52.394;9.756;2023-03-14T15:27:33;7.60;1.00
3208;DHT22;1616;52.394;9.756;2023-03-14T15:29:59;7.60;1.00
3208;DHT22;1616;52.394;9.756;2023-03-14T15:32:26;7.50;1.00
3208;DHT22;1616;52.394;9.756;2023-03-14T15:34:56;7.60;1.00
3208;DHT22;1616;52.394;9.756;2023-03-14T15:37:23;7.60;1.00
3208;DHT22;1616;52.394;9.756;2023-03-14T15:39:49;7.70;1.00
3208;DHT22;1616;52.394;9.756;2023-03-14T15:42:15;7.90;1.00
3208;DHT22;1616;52.394;9.756;2023-03-14T15:44:40;7.90;1.00
3208;DHT22;1616;52.394;9.756;2023-03-14T15:47:07;8.00;1.00
3208;DHT22;1616;52.394;9.756;2023-03-14T15:49:33;8.10;1.00
3208;DHT22;1616;52.394;9.756;2023-03-14T15:52:00;8.20;1.00
3208;DHT22;1616;52.394;9.756;2023-03-14T15:54:26;8.10;1.00
3208;DHT22;1616;52.394;9.756;2023-03-14T15:56:55;8.10;1.00
3208;DHT22;1616;52.394;9.756;2023-03-14T15:59:22;8.10;1.00
3208;DHT22;1616;52.394;9.756;2023-03-14T16:01:48;8.10;1.00
3208;DHT22;1616;52.394;9.756;2023-03-14T16:04:14;8.10;1.00
3208;DHT22;1616;52.394;9.756;2023-03-14T16:06:40;8.20;1.00
3208;DHT22;1616;52.394;9.756;2023-03-14T16:09:06;8.00;1.00
3208;DHT22;1616;52.394;9.756;2023-03-14T16:11:32;8.00;1.00
3208;DHT22;1616;52.394;9.756;2023-03-14T16:13:58;7.90;1.00
3208;DHT22;1616;52.394;9.756;2023-03-14T16:16:23;7.80;1.00
3208;DHT22;1616;52.394;9.756;2023-03-14T16:18:49;7.80;1.00
3208;DHT22;1616;52.394;9.756;2023-03-14T16:21:17;7.80;1.00
3208;DHT22;1616;52.394;9.756;2023-03-14T16:23:43;7.70;1.00
3208;DHT22;1616;52.394;9.756;2023-03-14T16:26:12;7.60;1.00
3208;DHT22;1616;52.394;9.756;2023-03-14T16:28:40;7.70;1.00
3208;DHT22;1616;52.394;9.756;2023-03-14T16:31:09;7.70;1.00
3208;DHT22;1616;52.394;9.756;2023-03-14T16:33:37;7.60;1.00
3208;DHT22;1616;52.394;9.756;2023-03-14T16:36:04;7.60;1.00
3208;DHT22;1616;52.394;9.756;2023-03-14T16:38:33;7.60;1.00
3208;DHT22;1616;52.394;9.756;2023-03-14T16:41:05;7.60;1.00
3208;DHT22;1616;52.394;9.756;2023-03-14T16:43:31;7.60;1.00
3208;DHT22;1616;52.394;9.756;2023-03-14T16:45:59;7.50;1.00
3208;DHT22;1616;52.394;9.756;2023-03-14T16:48:28;7.60;1.00
3208;DHT22;1616;52.394;9.756;2023-03-14T16:50:54;7.60;1.00
3208;DHT22;1616;52.394;9.756;2023-03-14T16:53:21;7.50;1.00
3208;DHT22;1616;52.394;9.756;2023-03-14T16:55:47;7.50;1.00
3208;DHT22;1616;52.394;9.756;2023-03-14T16:58:14;7.40;1.00
3208;DHT22;1616;52.394;9.756;2023-03-14T17:00:39;7.30;1.00
3208;DHT22;1616;52.394;9.756;2023-03-14T17:03:06;7.30;1.00
3208;DHT22;1616;52.394;9.756;2023-03-14T17:05:32;7.20;1.00
3208;DHT22;1616;52.394;9.756;2023-03-14T17:07:58;7.20;1.00
3208;DHT22;1616;52.394;9.756;2023-03-14T17:10:24;7.10;1.00
3208;DHT22;1616;52.394;9.756;2023-03-14T17:12:50;7.10;1.00
3208;DHT22;1616;52.394;9.756;2023-03-14T17:15:15;7.00;1.00
3208;DHT22;1616;52.394;9.756;2023-03-14T17:17:41;6.90;1.00
3208;DHT22;1616;52.394;9.756;2023-03-14T17:20:07;6.90;1.00
3208;DHT22;1616;52.394;9.756;2023-03-14T17:22:34;6.90;1.00
3208;DHT22;1616;52.394;9.756;2023-03-14T17:25:00;6.80;1.00
3208;DHT22;1616;52.394;9.756;2023-03-14T17:27:27;6.80;1.00
3208;DHT22;1616;52.394;9.756;2023-03-14T17:29:53;6.80;1.00
3208;DHT22;1616;52.394;9.756;2023-03-14T17:32:18;6.80;1.00
3208;DHT22;1616;52.394;9.756;2023-03-14T17:34:44;6.80;1.00
3208;DHT22;1616;52.394;9.756;2023-03-14T17:37:10;6.80;1.00
3208;DHT22;1616;52.394;9.756;2023-03-14T17:39:36;6.80;1.00
3208;DHT22;1616;52.394;9.756;2023-03-14T17:42:03;6.70;1.00